Flight Track Log - Related Links

Times and Time Zones

All times are in EDT time to prevent confusion due to time zone crossing. See the POE118 flight status page for this flight to view local times or setup timezone preferences in your user account.

Time Position Orientation Groundspeed Altitude Reporting Facility
EDT Latitude Longitude Course Direction KTS MPH feet Rate Location/Type
Thu 07:03:01 AM 40.7242 -74.1336 316° Northwest 167 192 2,800  Level New York Center
Thu 07:04:01 AM 40.7672 -74.1578 337° Northwest 220 253 4,500 2,400 Climbing New York Center
Thu 07:05:01 AM 40.8072 -74.2172 312° West 226 260 7,600 1,750 Climbing New York Center
Thu 07:06:01 AM 40.8494 -74.2714 316° Northwest 258 297 8,000 750 Climbing New York Center
Thu 07:07:01 AM 40.9011 -74.3511 311° West 269 310 9,100 1,000 Climbing New York Center
Thu 07:08:00 AM 41.0679 -74.6206 316° Northwest  Level FlightAware Approximate
Thu 07:08:01 AM 40.9489 -74.4194 313° West 279 321 10,000  Level New York Center
Thu 07:09:01 AM 41.0067 -74.5050 312° West 287 330 11,100 1,000 Climbing New York Center
Thu 07:10:01 AM 41.0606 -74.5822 313° West 336 387 12,000 1,000 Climbing New York Center
Thu 07:11:01 AM 41.1261 -74.6797 312° West 336 387 13,100 1,000 Climbing New York Center
Thu 07:12:01 AM 41.1689 -74.7703 302° West 328 377 14,000 500 Climbing New York Center
Thu 07:13:01 AM 41.2192 -74.8836 301° West 322 371 14,100  Climbing New York Center
Thu 07:14:01 AM 41.2633 -74.9858 300° West 322 371 14,000 100 Descending New York Center
Thu 07:15:01 AM 41.3039 -75.0794 300° West 322 371 14,300 650 Climbing New York Center
Thu 07:16:01 AM 41.3481 -75.1789 301° West 322 371 15,300 800 Climbing New York Center
Thu 07:17:01 AM 41.3958 -75.2953 299° West 329 379 15,900 300 Climbing New York Center
Thu 07:18:01 AM 41.4414 -75.4036 299° West 334 384 15,900 500 Level New York Center
Thu 07:19:01 AM 41.4836 -75.4978 301° West 334 384 16,900 1,100 Climbing New York Center
Thu 07:20:01 AM 41.5253 -75.6006 298° West 334 384 18,100 942 Climbing New York Center
Thu 07:21:02 AM 41.5647 -75.7033 297° West 324 373 18,800 950 Climbing New York Center
Thu 07:22:01 AM 41.6103 -75.8094 300° West 313 360 20,000 1,200 Climbing New York Center
Thu 07:23:02 AM 41.6497 -75.9094 298° West 313 360 21,200 1,000 Climbing New York Center
Thu 07:24:01 AM 41.6872 -76.0067 297° West 313 360 22,000 403 Climbing New York Center
Thu 07:25:01 AM 41.7306 -76.1103 299° West 313 360 22,000  Level New York Center
Thu 07:26:01 AM 41.7736 -76.2167 299° West 319 367 22,000  Level New York Center
Thu 07:27:01 AM 41.8164 -76.3258 298° West 324 373 22,000  Level New York Center
Thu 07:28:03 AM 41.8614 -76.4342 299° West 331 381 22,000  Level Cleveland Center
Thu 07:29:05 AM 41.9042 -76.5422 298° West 331 381 22,000  Level Cleveland Center
Thu 07:30:07 AM 41.9472 -76.6497 298° West 330 380 22,000  Level Cleveland Center
Thu 07:31:08 AM 41.9886 -76.7556 298° West 327 376 22,000  Level Cleveland Center
Thu 07:32:10 AM 42.0306 -76.8617 298° West 322 371 22,000  Level Cleveland Center
Thu 07:33:12 AM 42.0722 -76.9700 297° West 323 372 22,000  Level Cleveland Center
Thu 07:34:14 AM 42.1283 -77.0936 301° West 324 373 22,000  Level Cleveland Center
Thu 07:35:16 AM 42.1842 -77.1928 307° West 329 379 22,000  Level Cleveland Center
Thu 07:36:17 AM 42.2367 -77.2947 305° West 329 379 22,000  Level Cleveland Center
Thu 07:37:19 AM 42.2889 -77.3958 305° West 329 379 22,000  Level Cleveland Center
Thu 07:38:21 AM 42.3422 -77.4994 305° West 335 386 22,000  Level Cleveland Center
Thu 07:39:23 AM 42.3964 -77.6022 306° West 335 386 22,000  Level Cleveland Center
Thu 07:40:25 AM 42.4569 -77.7183 305° West 335 386 22,000  Level Cleveland Center
Thu 07:41:26 AM 42.5092 -77.8208 305° West 335 386 22,000  Level Cleveland Center
Thu 07:42:28 AM 42.5583 -77.9147 305° West 334 384 22,000  Level Cleveland Center
Thu 07:43:30 AM 42.6225 -78.0408 305° West 335 386 22,000 -532 Level Cleveland Center
Thu 07:44:32 AM 42.6758 -78.1433 305° West 334 384 20,900 -1,268 Descending Cleveland Center
Thu 07:45:33 AM 42.7267 -78.2453 304° West 331 381 19,400 -1,463 Descending Cleveland Center
Thu 07:46:35 AM 42.7797 -78.3506 304° West 335 386 17,900 -1,161 Descending Cleveland Center
Thu 07:47:37 AM 42.8350 -78.4572 305° West 343 395 17,000 -1,171 Descending Cleveland Center
Thu 07:48:38 AM 42.8861 -78.5608 304° West 331 381 15,500 -1,366 Descending Cleveland Center
Thu 07:49:40 AM 42.9350 -78.6608 304° West 317 365 14,200 -1,306 Descending Cleveland Center
Thu 07:50:42 AM 42.9878 -78.7592 306° West 320 368 12,800 -1,385 Descending Cleveland Center
Thu 07:52:29 AM 43.0833 -78.9333 307° West 290 334 10,300 -1,329 Descending Toronto Center
Thu 07:53:29 AM 43.1167 -79.0000 304° West 280 322 9,100 -1,200 Descending Toronto Center
Thu 07:54:29 AM 43.1667 -79.0833 309° West 260 299 7,900 -1,200 Descending Toronto Center
Thu 07:55:29 AM 43.2333 -79.1333 331° Northwest 270 311 6,700 -1,200 Descending Toronto Center
Thu 07:56:29 AM 43.3000 -79.1667 340° North 270 311 5,500 -1,150 Descending Toronto Center
Thu 07:57:29 AM 43.3667 -79.2167 331° Northwest 260 299 4,400 -1,200 Descending Toronto Center
Thu 07:58:29 AM 43.4333 -79.2667 331° Northwest 250 288 3,100 -1,250 Descending Toronto Center
Thu 07:59:29 AM 43.4833 -79.3167 324° Northwest 230 265 1,900 -793 Descending Toronto Center
Thu 08:00:30 AM 43.5333 -79.3500 334° Northwest 210 242 1,500 -298 Descending Toronto Center
Thu 08:01:30 AM 43.5667 -79.4000 313° West 210 242 1,300 -252 Descending Toronto Center
Thu 08:02:29 AM 43.6167 -79.4333 334° Northwest 160 184 1,000 -454 Descending Toronto Center
Thu 08:03:29 AM 43.6167 -79.3833 90° East 110 127 400 -600 Descending Toronto Center

Login

Don't have an account? Register now (free) for customized features, flight alerts, and more!